createdAt,value
2023-04-03T00:00:06.185Z,3.00
2023-04-03T00:01:08.937Z,2.99
2023-04-03T00:02:12.861Z,2.98
2023-04-03T00:03:15.242Z,2.98
2023-04-03T00:04:17.696Z,2.98
2023-04-03T00:05:19.949Z,2.99
2023-04-03T00:06:24.062Z,2.98
2023-04-03T00:07:26.500Z,2.97
2023-04-03T00:08:32.070Z,2.96
2023-04-03T00:09:34.330Z,2.95
2023-04-03T00:10:38.919Z,2.96
2023-04-03T00:11:41.586Z,2.91
2023-04-03T00:12:44.050Z,2.91
2023-04-03T00:13:46.618Z,2.90
2023-04-03T00:14:49.200Z,2.91
2023-04-03T00:15:52.814Z,2.88
2023-04-03T00:16:55.199Z,2.88
2023-04-03T00:17:58.812Z,2.88
2023-04-03T00:19:01.134Z,2.88
2023-04-03T00:20:04.755Z,2.88
2023-04-03T00:21:07.995Z,2.87
2023-04-03T00:22:10.302Z,2.86
2023-04-03T00:23:12.699Z,2.83
2023-04-03T00:24:15.054Z,2.83
2023-04-03T00:25:17.380Z,2.83
2023-04-03T00:26:19.702Z,2.83
2023-04-03T00:27:22.999Z,2.83
2023-04-03T00:28:25.613Z,2.82
2023-04-03T00:29:27.855Z,2.81
2023-04-03T00:30:30.141Z,2.80
2023-04-03T00:31:32.524Z,2.80
2023-04-03T00:32:35.002Z,2.79
2023-04-03T00:33:37.390Z,2.77
2023-04-03T00:34:39.659Z,2.78
2023-04-03T00:35:42.360Z,2.75
2023-04-03T00:36:46.074Z,2.74
2023-04-03T00:37:48.472Z,2.72
2023-04-03T00:38:50.755Z,2.73
2023-04-03T00:39:53.120Z,2.72
2023-04-03T00:40:55.612Z,2.71
2023-04-03T00:41:57.901Z,2.70
2023-04-03T00:43:00.907Z,2.69
2023-04-03T00:44:22.006Z,2.69
2023-04-03T00:45:33.424Z,2.69
2023-04-03T00:46:35.734Z,2.67
2023-04-03T00:47:40.838Z,2.65
2023-04-03T00:48:48.532Z,2.64
2023-04-03T00:49:53.173Z,2.63
2023-04-03T00:50:56.065Z,2.63
2023-04-03T00:51:59.555Z,2.62
2023-04-03T00:53:03.142Z,2.62
2023-04-03T00:54:08.370Z,2.60
2023-04-03T00:55:11.179Z,2.59
2023-04-03T00:56:18.490Z,2.58
2023-04-03T00:57:22.844Z,2.57
2023-04-03T00:58:33.641Z,2.55
2023-04-03T00:59:42.093Z,2.56
2023-04-03T01:00:50.588Z,2.54
2023-04-03T01:01:58.856Z,2.54
2023-04-03T01:03:01.758Z,2.54
2023-04-03T01:04:05.328Z,2.52
2023-04-03T01:05:08.375Z,2.52
2023-04-03T01:06:11.154Z,2.51
2023-04-03T01:07:19.495Z,2.52
2023-04-03T01:08:21.916Z,2.52
2023-04-03T01:09:25.639Z,2.50
2023-04-03T01:10:28.962Z,2.50
2023-04-03T01:11:31.512Z,2.49
2023-04-03T01:12:39.763Z,2.49
2023-04-03T01:13:43.117Z,2.49
2023-04-03T01:14:48.524Z,2.48
2023-04-03T01:15:51.885Z,2.47
2023-04-03T01:16:55.874Z,2.44
2023-04-03T01:17:59.674Z,2.45
2023-04-03T01:19:03.160Z,2.44
2023-04-03T01:20:23.866Z,2.44
2023-04-03T01:21:38.260Z,2.43
2023-04-03T01:23:05.454Z,2.41
2023-04-03T01:24:31.463Z,2.40
2023-04-03T01:25:35.137Z,2.39
2023-04-03T01:26:37.664Z,2.35
2023-04-03T01:27:40.067Z,2.35
2023-04-03T01:28:42.484Z,2.35
2023-04-03T01:29:45.157Z,2.33
2023-04-03T01:31:09.208Z,2.32
2023-04-03T01:32:12.578Z,2.32
2023-04-03T01:33:15.037Z,2.31
2023-04-03T01:34:18.277Z,2.29
2023-04-03T01:35:20.655Z,2.28
2023-04-03T01:36:29.537Z,2.27
2023-04-03T01:37:34.377Z,2.25
2023-04-03T01:38:36.889Z,2.24
2023-04-03T01:39:39.453Z,2.24
2023-04-03T01:40:41.819Z,2.22
2023-04-03T01:41:44.867Z,2.21
2023-04-03T01:42:52.959Z,2.21
2023-04-03T01:43:55.875Z,2.20
2023-04-03T01:44:58.303Z,2.20
2023-04-03T01:46:01.411Z,2.17
2023-04-03T01:47:06.669Z,2.16
2023-04-03T01:48:09.304Z,2.16
2023-04-03T01:49:11.849Z,2.14
2023-04-03T01:50:14.258Z,2.13
2023-04-03T01:51:17.386Z,2.12
2023-04-03T01:52:20.654Z,2.09
2023-04-03T01:53:22.987Z,2.07
2023-04-03T01:54:25.376Z,2.07
2023-04-03T01:55:28.092Z,2.06
2023-04-03T01:56:30.632Z,2.06
2023-04-03T01:57:33.203Z,2.04
2023-04-03T01:58:35.768Z,2.03
2023-04-03T01:59:38.416Z,2.03
2023-04-03T02:00:41.193Z,2.01
2023-04-03T02:01:44.687Z,2.00
2023-04-03T02:02:47.175Z,1.99
2023-04-03T02:03:49.975Z,1.97
2023-04-03T02:04:53.180Z,1.96
2023-04-03T02:05:55.735Z,1.97
2023-04-03T02:06:59.498Z,1.93
2023-04-03T02:08:02.237Z,1.92
2023-04-03T02:09:06.148Z,1.92
2023-04-03T02:10:08.884Z,1.91
2023-04-03T02:11:11.288Z,1.91
2023-04-03T02:12:13.649Z,1.89
2023-04-03T02:13:16.903Z,1.89
2023-04-03T02:14:20.038Z,1.87
2023-04-03T02:15:22.427Z,1.86
2023-04-03T02:16:26.385Z,1.84
2023-04-03T02:17:28.700Z,1.84
2023-04-03T02:18:31.024Z,1.83
2023-04-03T02:19:33.402Z,1.80
2023-04-03T02:20:35.855Z,1.80
2023-04-03T02:21:38.430Z,1.77
2023-04-03T02:22:40.896Z,1.77
2023-04-03T02:23:43.235Z,1.76
2023-04-03T02:24:45.932Z,1.76
2023-04-03T02:25:50.461Z,1.76
2023-04-03T02:26:52.724Z,1.74
2023-04-03T02:27:55.135Z,1.72
2023-04-03T02:28:57.451Z,1.71
2023-04-03T02:29:59.818Z,1.70
2023-04-03T02:31:02.704Z,1.69
2023-04-03T02:32:06.154Z,1.69
2023-04-03T02:33:09.244Z,1.67
2023-04-03T02:34:11.949Z,1.65
2023-04-03T02:35:14.623Z,1.64
2023-04-03T02:36:18.308Z,1.64
2023-04-03T02:37:27.417Z,1.62
2023-04-03T02:38:30.533Z,1.59
2023-04-03T02:39:33.147Z,1.58
2023-04-03T02:40:36.533Z,1.56
2023-04-03T02:41:39.135Z,1.54
2023-04-03T02:42:47.692Z,1.52
2023-04-03T02:43:49.972Z,1.51
2023-04-03T02:44:52.672Z,1.49
2023-04-03T02:45:55.047Z,1.49
2023-04-03T02:46:57.408Z,1.47
2023-04-03T02:47:59.846Z,1.45
2023-04-03T02:49:02.147Z,1.43
2023-04-03T02:50:05.160Z,1.42
2023-04-03T02:51:08.331Z,1.41
2023-04-03T02:52:10.637Z,1.38
2023-04-03T02:53:13.101Z,1.36
2023-04-03T02:54:15.746Z,1.35
2023-04-03T02:55:23.005Z,1.31
2023-04-03T02:56:29.071Z,1.31
2023-04-03T02:57:31.553Z,1.27
2023-04-03T02:58:33.975Z,1.26
2023-04-03T02:59:37.956Z,1.25
2023-04-03T03:00:40.471Z,1.24
2023-04-03T03:01:42.929Z,1.21
2023-04-03T03:02:45.313Z,1.19
2023-04-03T03:03:47.630Z,1.18
2023-04-03T03:04:51.076Z,1.16
2023-04-03T03:06:08.793Z,1.16
2023-04-03T03:07:13.209Z,1.14
2023-04-03T03:08:15.925Z,1.13
2023-04-03T03:09:20.881Z,1.12
2023-04-03T03:10:24.372Z,1.09
2023-04-03T03:11:27.743Z,1.08
2023-04-03T03:12:32.020Z,1.06
2023-04-03T03:13:35.146Z,1.06
2023-04-03T03:14:42.554Z,1.03
2023-04-03T03:15:45.052Z,1.02
2023-04-03T03:16:50.753Z,1.02
2023-04-03T03:17:53.115Z,0.99
2023-04-03T03:18:57.869Z,0.99
2023-04-03T03:20:01.390Z,0.98
2023-04-03T03:21:05.335Z,0.96
2023-04-03T03:22:08.885Z,0.93
2023-04-03T03:23:11.602Z,0.91
2023-04-03T03:24:13.979Z,0.90
2023-04-03T03:25:16.298Z,0.90
2023-04-03T03:26:18.738Z,0.88
2023-04-03T03:27:21.122Z,0.86
2023-04-03T03:28:25.208Z,0.84
2023-04-03T03:29:27.538Z,0.83
2023-04-03T03:30:30.209Z,0.81
2023-04-03T03:31:32.529Z,0.78
2023-04-03T03:32:35.035Z,0.76
2023-04-03T03:33:37.856Z,0.74
2023-04-03T03:34:40.254Z,0.71
2023-04-03T03:35:43.120Z,0.70
2023-04-03T03:36:46.081Z,0.68
2023-04-03T03:37:48.451Z,0.65
2023-04-03T03:38:50.865Z,0.63
2023-04-03T03:39:53.310Z,0.60
2023-04-03T03:40:55.644Z,0.60
2023-04-03T03:41:59.192Z,0.57
2023-04-03T03:43:01.480Z,0.56
2023-04-03T03:44:05.125Z,0.56
2023-04-03T03:45:09.512Z,0.54
2023-04-03T03:46:11.952Z,0.52
2023-04-03T03:47:14.314Z,0.50
2023-04-03T03:48:16.626Z,0.50
2023-04-03T03:49:18.890Z,0.46
2023-04-03T03:50:21.620Z,0.46
2023-04-03T03:51:24.014Z,0.44
2023-04-03T03:52:26.641Z,0.43
2023-04-03T03:53:29.876Z,0.42
2023-04-03T03:54:36.329Z,0.39
2023-04-03T03:55:39.126Z,0.38
2023-04-03T03:56:42.424Z,0.38
2023-04-03T03:57:45.989Z,0.37
2023-04-03T03:58:48.831Z,0.33
2023-04-03T03:59:52.954Z,0.34
2023-04-03T04:00:55.855Z,0.31
2023-04-03T04:01:58.495Z,0.31
2023-04-03T04:03:02.150Z,0.28
2023-04-03T04:04:06.534Z,0.29
2023-04-03T04:05:09.368Z,0.26
2023-04-03T04:06:11.686Z,0.26
2023-04-03T04:07:14.031Z,0.23
2023-04-03T04:08:16.382Z,0.23
2023-04-03T04:09:20.781Z,0.21
2023-04-03T04:10:23.177Z,0.20
2023-04-03T04:11:26.348Z,0.19
2023-04-03T04:12:30.012Z,0.16
2023-04-03T04:13:32.306Z,0.15
2023-04-03T04:14:34.801Z,0.13
2023-04-03T04:15:37.436Z,0.12
2023-04-03T04:16:41.359Z,0.10
2023-04-03T04:17:50.149Z,0.09
2023-04-03T04:18:52.558Z,0.07
2023-04-03T04:19:55.576Z,0.07
2023-04-03T04:20:57.905Z,0.06
2023-04-03T04:22:00.553Z,0.04
2023-04-03T04:23:02.920Z,0.02
2023-04-03T04:24:07.539Z,-0.01
2023-04-03T04:25:10.297Z,-0.02
2023-04-03T04:26:14.407Z,-0.07
2023-04-03T04:27:17.254Z,-0.07
2023-04-03T04:28:19.750Z,-0.09
2023-04-03T04:29:25.326Z,-0.11
2023-04-03T04:30:28.724Z,-0.12
2023-04-03T04:31:32.943Z,-0.14
2023-04-03T04:32:35.755Z,-0.16
2023-04-03T04:33:38.413Z,-0.18
2023-04-03T04:34:42.568Z,-0.19
2023-04-03T04:35:45.046Z,-0.22
2023-04-03T04:36:48.259Z,-0.23
2023-04-03T04:37:51.273Z,-0.26
2023-04-03T04:38:54.247Z,-0.27
2023-04-03T04:39:58.800Z,-0.30
2023-04-03T04:41:01.098Z,-0.31
2023-04-03T04:42:04.197Z,-0.33
2023-04-03T04:43:09.210Z,-0.34
2023-04-03T04:44:12.090Z,-0.38
2023-04-03T04:45:16.074Z,-0.38
2023-04-03T04:46:20.588Z,-0.40
2023-04-03T04:47:30.008Z,-0.41
2023-04-03T04:48:32.980Z,-0.43
2023-04-03T04:49:35.818Z,-0.45
2023-04-03T04:50:38.415Z,-0.45
2023-04-03T04:51:51.092Z,-0.47
2023-04-03T04:52:56.965Z,-0.49
2023-04-03T04:53:59.359Z,-0.50
2023-04-03T04:55:02.216Z,-0.51
2023-04-03T04:56:04.784Z,-0.50
2023-04-03T04:57:08.386Z,-0.53
2023-04-03T04:58:11.278Z,-0.56
2023-04-03T04:59:14.012Z,-0.55
2023-04-03T05:00:16.877Z,-0.57
2023-04-03T05:01:19.840Z,-0.57
2023-04-03T05:02:35.377Z,-0.58
2023-04-03T05:03:38.158Z,-0.61
2023-04-03T05:04:41.319Z,-0.62
2023-04-03T05:05:49.386Z,-0.64
2023-04-03T05:06:51.842Z,-0.65
2023-04-03T05:07:58.826Z,-0.65
2023-04-03T05:09:02.775Z,-0.66
2023-04-03T05:10:07.286Z,-0.68
2023-04-03T05:11:10.006Z,-0.69
2023-04-03T05:12:13.830Z,-0.70
2023-04-03T05:13:22.826Z,-0.71
2023-04-03T05:14:25.187Z,-0.70
2023-04-03T05:15:28.548Z,-0.71
2023-04-03T05:16:31.241Z,-0.70
2023-04-03T05:17:33.928Z,-0.72
2023-04-03T05:18:37.263Z,-0.73
2023-04-03T05:19:44.438Z,-0.72
2023-04-03T05:20:50.724Z,-0.74
2023-04-03T05:21:55.601Z,-0.73
2023-04-03T05:22:58.725Z,-0.74
2023-04-03T05:24:04.035Z,-0.74
2023-04-03T05:25:09.438Z,-0.73
2023-04-03T05:26:11.916Z,-0.70
2023-04-03T05:27:14.723Z,-0.68
2023-04-03T05:28:23.425Z,-0.65
2023-04-03T05:29:26.176Z,-0.62
2023-04-03T05:30:28.820Z,-0.58
2023-04-03T05:31:31.580Z,-0.51
2023-04-03T05:32:34.830Z,-0.46
2023-04-03T05:33:49.036Z,-0.40
2023-04-03T05:34:54.126Z,-0.33
2023-04-03T05:35:56.798Z,-0.24
2023-04-03T05:37:05.055Z,-0.16
2023-04-03T05:38:09.305Z,-0.07
2023-04-03T05:39:11.734Z,0.03
2023-04-03T05:40:18.679Z,0.16
2023-04-03T05:41:23.058Z,0.25
2023-04-03T05:42:26.997Z,0.37
2023-04-03T05:43:29.296Z,0.48
2023-04-03T05:44:32.084Z,0.60
2023-04-03T05:45:34.670Z,0.73
2023-04-03T05:46:37.582Z,0.85
2023-04-03T05:47:42.799Z,0.99
2023-04-03T05:48:45.973Z,1.12
2023-04-03T05:49:52.058Z,1.25
2023-04-03T05:50:56.956Z,1.40
2023-04-03T05:52:02.629Z,1.54
2023-04-03T05:53:07.285Z,1.68
2023-04-03T05:54:20.537Z,1.84
2023-04-03T05:55:26.635Z,1.98
2023-04-03T05:56:29.193Z,2.12
2023-04-03T05:57:31.609Z,2.25
2023-04-03T05:58:34.120Z,2.39
2023-04-03T05:59:37.158Z,2.51
2023-04-03T06:00:40.205Z,2.66
2023-04-03T06:01:43.048Z,2.76
2023-04-03T06:02:45.570Z,2.92
2023-04-03T06:03:54.175Z,3.08
2023-04-03T06:04:56.623Z,3.21
2023-04-03T06:06:00.125Z,3.37
2023-04-03T06:07:02.426Z,3.50
2023-04-03T06:08:04.700Z,3.65
2023-04-03T06:09:07.773Z,3.78
2023-04-03T06:10:13.261Z,3.92
2023-04-03T06:11:18.064Z,4.05
2023-04-03T06:12:21.192Z,4.20
2023-04-03T06:13:23.555Z,4.30
2023-04-03T06:14:28.975Z,4.41
2023-04-03T06:15:31.371Z,4.51
2023-04-03T06:16:34.192Z,4.57
2023-04-03T06:17:38.601Z,4.65
2023-04-03T06:18:41.159Z,4.73
2023-04-03T06:19:43.663Z,4.80
2023-04-03T06:20:47.352Z,4.86
2023-04-03T06:21:50.009Z,4.90
2023-04-03T06:22:52.739Z,4.95
2023-04-03T06:23:55.004Z,4.97
2023-04-03T06:24:58.440Z,5.00
2023-04-03T06:26:01.894Z,5.05
2023-04-03T06:27:04.169Z,5.09
2023-04-03T06:28:07.148Z,5.13
2023-04-03T06:29:09.945Z,5.14
2023-04-03T06:30:12.790Z,5.13
2023-04-03T06:31:15.179Z,5.14
2023-04-03T06:32:17.933Z,5.16
2023-04-03T06:33:20.231Z,5.15
2023-04-03T06:34:22.726Z,5.15
2023-04-03T06:35:25.085Z,5.14
2023-04-03T06:36:27.445Z,5.12
2023-04-03T06:37:30.996Z,5.08
2023-04-03T06:38:36.424Z,5.06
2023-04-03T06:39:38.798Z,5.00
2023-04-03T06:40:41.376Z,4.99
2023-04-03T06:41:44.549Z,4.98
2023-04-03T06:42:47.676Z,4.96
2023-04-03T06:43:50.076Z,4.94
2023-04-03T06:44:52.461Z,4.89
2023-04-03T06:45:56.264Z,4.86
2023-04-03T06:46:58.596Z,4.84
2023-04-03T06:48:01.194Z,4.83
2023-04-03T06:49:03.972Z,4.81
2023-04-03T06:50:07.872Z,4.79
2023-04-03T06:51:18.814Z,4.80
2023-04-03T06:52:21.978Z,4.79
2023-04-03T06:53:24.590Z,4.79
2023-04-03T06:54:26.897Z,4.78
2023-04-03T06:55:29.214Z,4.74
2023-04-03T06:56:31.855Z,4.75
2023-04-03T06:57:34.540Z,4.73
2023-04-03T06:58:37.312Z,4.72
2023-04-03T06:59:39.603Z,4.68
2023-04-03T07:00:42.288Z,4.64
2023-04-03T07:01:44.828Z,4.60
2023-04-03T07:02:47.795Z,4.54
2023-04-03T07:03:50.373Z,4.53
2023-04-03T07:04:52.877Z,4.50
2023-04-03T07:05:55.316Z,4.47
2023-04-03T07:06:57.650Z,4.44
2023-04-03T07:07:59.977Z,4.41
2023-04-03T07:09:02.926Z,4.39
2023-04-03T07:10:06.685Z,4.33
2023-04-03T07:11:09.967Z,4.30
2023-04-03T07:12:12.261Z,4.23
2023-04-03T07:13:14.502Z,4.21
2023-04-03T07:14:16.983Z,4.18
2023-04-03T07:15:19.470Z,4.15
2023-04-03T07:16:21.863Z,4.13
2023-04-03T07:17:24.200Z,4.08
2023-04-03T07:18:26.851Z,4.05
2023-04-03T07:19:30.352Z,4.00
2023-04-03T07:20:32.731Z,3.96
2023-04-03T07:21:36.651Z,3.92
2023-04-03T07:22:38.947Z,3.89
2023-04-03T07:23:41.278Z,3.85
2023-04-03T07:24:43.624Z,3.82
2023-04-03T07:25:48.453Z,3.78
2023-04-03T07:26:52.672Z,3.73
2023-04-03T07:27:58.863Z,3.68
2023-04-03T07:29:01.522Z,3.65
2023-04-03T07:30:04.188Z,3.61
2023-04-03T07:31:09.786Z,3.58
2023-04-03T07:32:12.245Z,3.53
2023-04-03T07:33:15.681Z,3.49
2023-04-03T07:34:17.980Z,3.44
2023-04-03T07:35:21.398Z,3.39
2023-04-03T07:36:24.823Z,3.35
2023-04-03T07:37:27.666Z,3.31
2023-04-03T07:38:31.237Z,3.28
2023-04-03T07:39:34.057Z,3.23
2023-04-03T07:40:37.256Z,3.20
2023-04-03T07:41:39.770Z,3.16
2023-04-03T07:42:42.062Z,3.11
2023-04-03T07:43:44.955Z,3.08
2023-04-03T07:44:47.665Z,3.02
2023-04-03T07:45:55.410Z,2.96
2023-04-03T07:46:58.144Z,2.93
2023-04-03T07:48:00.432Z,2.90
2023-04-03T07:49:02.786Z,2.86
2023-04-03T07:50:05.589Z,2.84
2023-04-03T07:51:07.921Z,2.81
2023-04-03T07:52:11.548Z,2.78
2023-04-03T07:53:14.320Z,2.76
2023-04-03T07:54:17.149Z,2.75
2023-04-03T07:55:19.414Z,2.71
2023-04-03T07:56:21.948Z,2.68
2023-04-03T07:57:26.995Z,2.64
2023-04-03T07:58:30.908Z,2.63
2023-04-03T07:59:33.710Z,2.60
2023-04-03T08:00:35.955Z,2.58
2023-04-03T08:01:38.401Z,2.57
2023-04-03T08:02:40.663Z,2.55
2023-04-03T08:03:43.244Z,2.53
2023-04-03T08:04:45.760Z,2.51
2023-04-03T08:05:49.876Z,2.50
2023-04-03T08:06:52.418Z,2.47
2023-04-03T08:07:54.664Z,2.47
2023-04-03T08:08:57.207Z,2.47
2023-04-03T08:09:59.608Z,2.46
2023-04-03T08:11:03.729Z,2.47
2023-04-03T08:12:06.120Z,2.47
2023-04-03T08:13:09.771Z,2.48
2023-04-03T08:14:17.800Z,2.49
2023-04-03T08:15:20.476Z,2.49
2023-04-03T08:16:25.281Z,2.46
2023-04-03T08:17:29.022Z,2.44
2023-04-03T08:18:31.391Z,2.46
2023-04-03T08:19:33.686Z,2.47
2023-04-03T08:20:35.975Z,2.48
2023-04-03T08:21:38.266Z,2.52
2023-04-03T08:22:40.727Z,2.55
2023-04-03T08:23:42.997Z,2.58
2023-04-03T08:24:56.323Z,2.62
2023-04-03T08:26:07.513Z,2.65
2023-04-03T08:27:10.136Z,2.69
2023-04-03T08:28:13.482Z,2.73
2023-04-03T08:29:15.938Z,2.76
2023-04-03T08:30:18.524Z,2.79
2023-04-03T08:31:21.338Z,2.83
2023-04-03T08:32:24.302Z,2.87
2023-04-03T08:33:26.568Z,2.90
2023-04-03T08:34:28.840Z,2.96
2023-04-03T08:35:31.688Z,3.01
2023-04-03T08:36:34.042Z,3.07
2023-04-03T08:37:39.214Z,3.11
2023-04-03T08:38:41.761Z,3.16
2023-04-03T08:39:45.031Z,3.20
2023-04-03T08:40:47.388Z,3.23
2023-04-03T08:41:49.974Z,3.26
2023-04-03T08:42:58.040Z,3.30
2023-04-03T08:44:38.645Z,3.34
2023-04-03T08:45:51.536Z,3.37
2023-04-03T08:47:21.892Z,3.40
2023-04-03T08:48:40.485Z,3.44
2023-04-03T08:49:54.321Z,3.47
2023-04-03T08:51:03.150Z,3.47
2023-04-03T08:52:12.399Z,3.48
2023-04-03T08:53:22.658Z,3.53
2023-04-03T08:54:36.506Z,3.53
2023-04-03T08:55:47.184Z,3.56
2023-04-03T08:56:49.612Z,3.59
2023-04-03T08:58:00.225Z,3.61
2023-04-03T08:59:13.461Z,3.65
2023-04-03T09:00:24.104Z,3.68
2023-04-03T09:01:35.426Z,3.72
2023-04-03T09:02:48.450Z,3.74
2023-04-03T09:03:51.335Z,3.75
2023-04-03T09:04:56.965Z,3.78
2023-04-03T09:06:06.552Z,3.81
2023-04-03T09:07:22.000Z,3.84
2023-04-03T09:08:27.233Z,3.86
2023-04-03T09:09:36.409Z,3.86
2023-04-03T09:10:41.104Z,3.87
2023-04-03T09:12:22.216Z,3.91
2023-04-03T09:13:42.419Z,3.96
2023-04-03T09:14:57.243Z,3.96
2023-04-03T09:16:21.577Z,3.99
2023-04-03T09:17:39.400Z,4.01
2023-04-03T09:18:49.453Z,4.03
2023-04-03T09:19:59.679Z,4.07
2023-04-03T09:21:14.816Z,4.09
2023-04-03T09:22:24.953Z,4.11
2023-04-03T09:23:43.340Z,4.14
2023-04-03T09:24:51.335Z,4.18
2023-04-03T09:26:01.965Z,4.21
2023-04-03T09:27:11.262Z,4.28
2023-04-03T09:28:13.736Z,4.34
2023-04-03T09:29:20.298Z,4.41
2023-04-03T09:30:25.060Z,4.49
2023-04-03T09:31:30.573Z,4.55
2023-04-03T09:32:35.157Z,4.63
2023-04-03T09:33:38.160Z,4.71
2023-04-03T09:34:43.062Z,4.81
2023-04-03T09:35:48.702Z,4.90
2023-04-03T09:36:54.279Z,5.01
2023-04-03T09:38:18.803Z,5.13
2023-04-03T09:39:31.389Z,5.22
2023-04-03T09:40:40.219Z,5.34
2023-04-03T09:41:55.877Z,5.42
2023-04-03T09:43:01.890Z,5.52
2023-04-03T09:44:04.538Z,5.58
2023-04-03T09:45:07.927Z,5.67
2023-04-03T09:46:33.139Z,5.78
2023-04-03T09:47:37.974Z,5.86
2023-04-03T09:48:40.491Z,5.94
2023-04-03T09:49:42.759Z,6.02
2023-04-03T09:50:51.582Z,6.13
2023-04-03T09:51:54.962Z,6.22
2023-04-03T09:52:57.336Z,6.31
2023-04-03T09:53:59.784Z,6.43
2023-04-03T09:55:09.956Z,6.54
2023-04-03T09:56:19.271Z,6.66
2023-04-03T09:57:21.779Z,6.76
2023-04-03T09:58:47.357Z,6.89
2023-04-03T10:00:01.794Z,7.04
2023-04-03T10:01:04.999Z,7.16
2023-04-03T10:02:39.850Z,7.28
2023-04-03T10:03:47.759Z,7.37
2023-04-03T10:05:02.430Z,7.44
2023-04-03T10:06:25.087Z,7.51
2023-04-03T10:07:40.171Z,7.56
2023-04-03T10:08:43.501Z,7.60
2023-04-03T10:09:56.544Z,7.64
2023-04-03T10:11:13.950Z,7.65
2023-04-03T10:12:21.103Z,7.69
2023-04-03T10:13:23.491Z,7.66
2023-04-03T10:14:26.361Z,7.64
2023-04-03T10:15:29.860Z,7.64
2023-04-03T10:16:49.471Z,7.63
2023-04-03T10:19:38.016Z,7.54
2023-04-03T10:20:51.295Z,7.48
2023-04-03T10:22:05.099Z,7.48
2023-04-03T10:23:13.277Z,7.45
2023-04-03T10:24:23.871Z,7.41
2023-04-03T10:25:53.600Z,7.41
2023-04-03T10:27:03.408Z,7.36
2023-04-03T10:28:28.550Z,7.32
2023-04-03T10:30:00.712Z,7.27
2023-04-03T10:31:15.782Z,7.19
2023-04-03T10:32:41.748Z,7.18
2023-04-03T10:34:08.890Z,7.16
2023-04-03T10:35:32.663Z,7.18
2023-04-03T10:37:02.541Z,7.20
2023-04-03T10:38:21.611Z,7.23
2023-04-03T10:39:54.163Z,7.26
2023-04-03T10:41:14.073Z,7.29
2023-04-03T10:42:36.792Z,7.30
2023-04-03T10:43:51.424Z,7.29
2023-04-03T10:44:59.610Z,7.30
2023-04-03T10:46:09.831Z,7.29
2023-04-03T10:47:12.082Z,7.27
2023-04-03T10:48:46.792Z,7.21
2023-04-03T10:50:03.406Z,7.19
2023-04-03T10:51:21.328Z,7.15
2023-04-03T10:52:26.657Z,7.10
2023-04-03T10:53:40.148Z,7.10
2023-04-03T10:54:50.797Z,7.07
2023-04-03T10:56:13.617Z,7.05
2023-04-03T10:57:16.043Z,7.04
2023-04-03T10:58:37.474Z,7.03
2023-04-03T10:59:47.957Z,7.03
2023-04-03T11:00:54.233Z,7.04
2023-04-03T11:02:30.811Z,7.09
2023-04-03T11:03:42.476Z,7.13
2023-04-03T11:04:49.756Z,7.14
2023-04-03T11:05:56.103Z,7.17
2023-04-03T11:07:12.390Z,7.20
2023-04-03T11:08:33.604Z,7.22
2023-04-03T11:09:42.963Z,7.22
2023-04-03T11:10:52.103Z,7.19
2023-04-03T11:12:01.596Z,7.20
2023-04-03T11:13:13.491Z,7.17
2023-04-03T11:14:23.663Z,7.14
2023-04-03T11:15:27.691Z,7.08
2023-04-03T11:16:40.403Z,7.05
2023-04-03T11:17:54.449Z,7.01
2023-04-03T11:19:13.174Z,6.98
2023-04-03T11:20:21.577Z,6.99
2023-04-03T11:21:44.450Z,7.01
2023-04-03T11:22:52.634Z,7.01
2023-04-03T11:23:59.563Z,7.02
2023-04-03T11:25:11.580Z,7.06
2023-04-03T11:26:17.795Z,7.10
2023-04-03T11:27:25.428Z,7.11
2023-04-03T11:28:27.795Z,7.12
2023-04-03T11:29:35.928Z,7.15
2023-04-03T11:30:47.017Z,7.15
2023-04-03T11:32:05.662Z,7.18
2023-04-03T11:33:23.291Z,7.18
2023-04-03T11:34:42.910Z,7.18
2023-04-03T11:35:48.435Z,7.18
2023-04-03T11:36:55.081Z,7.15
2023-04-03T11:37:59.681Z,7.13
2023-04-03T11:39:26.227Z,7.13
2023-04-03T11:40:33.462Z,7.10
2023-04-03T11:41:36.255Z,7.07
2023-04-03T11:42:41.386Z,7.06
2023-04-03T11:44:01.971Z,7.01
2023-04-03T11:45:22.781Z,6.96
2023-04-03T11:46:55.620Z,6.93
2023-04-03T11:48:34.356Z,6.89
2023-04-03T11:49:58.555Z,6.86
2023-04-03T11:51:22.354Z,6.83
2023-04-03T11:52:43.188Z,6.82
2023-04-03T11:53:46.853Z,6.80
2023-04-03T11:54:49.777Z,6.78
2023-04-03T11:55:52.012Z,6.77
2023-04-03T11:56:54.355Z,6.76
2023-04-03T11:57:59.306Z,6.74
2023-04-03T11:59:15.756Z,6.71
2023-04-03T12:00:52.485Z,6.69
2023-04-03T12:01:57.701Z,6.68
2023-04-03T12:03:00.664Z,6.69
2023-04-03T12:04:11.324Z,6.67
2023-04-03T12:05:29.748Z,6.67
2023-04-03T12:07:01.024Z,6.62
2023-04-03T12:08:29.081Z,6.59
2023-04-03T12:09:36.390Z,6.56
2023-04-03T12:10:40.059Z,6.52
2023-04-03T12:11:42.430Z,6.52
2023-04-03T12:12:58.200Z,6.51
2023-04-03T12:14:00.451Z,6.51
2023-04-03T12:15:27.483Z,6.49
2023-04-03T12:16:39.068Z,6.47
2023-04-03T12:17:41.836Z,6.43
2023-04-03T12:18:55.165Z,6.41
2023-04-03T12:19:57.793Z,6.38
2023-04-03T12:21:00.360Z,6.36
2023-04-03T12:22:06.250Z,6.31
2023-04-03T12:23:24.365Z,6.28
2023-04-03T12:24:36.873Z,6.25
2023-04-03T12:25:52.198Z,6.21
2023-04-03T12:27:10.411Z,6.15
2023-04-03T12:28:13.030Z,6.11
2023-04-03T12:29:26.968Z,6.05
2023-04-03T12:30:31.446Z,6.01
2023-04-03T12:31:46.718Z,6.01
2023-04-03T12:33:20.062Z,6.01
2023-04-03T12:34:58.158Z,5.97
2023-04-03T12:36:24.778Z,5.93
2023-04-03T12:37:50.873Z,5.92
2023-04-03T12:39:06.920Z,5.89
2023-04-03T12:40:22.457Z,5.85
2023-04-03T12:41:41.020Z,5.81
2023-04-03T12:42:59.374Z,5.81
2023-04-03T12:44:14.507Z,5.79
2023-04-03T12:45:21.547Z,5.72
2023-04-03T12:46:36.947Z,5.69
2023-04-03T12:47:43.272Z,5.69
2023-04-03T12:48:45.939Z,5.69
2023-04-03T12:49:51.549Z,5.69
2023-04-03T12:50:57.067Z,5.65
2023-04-03T12:52:00.188Z,5.64
2023-04-03T12:53:08.361Z,5.62
2023-04-03T12:54:34.484Z,5.57
2023-04-03T12:55:38.200Z,5.56
2023-04-03T12:56:41.149Z,5.55
2023-04-03T12:57:43.678Z,5.54
2023-04-03T12:58:46.063Z,5.51
2023-04-03T12:59:49.905Z,5.52
2023-04-03T13:01:03.189Z,5.51
2023-04-03T13:02:20.936Z,5.50
2023-04-03T13:03:28.114Z,5.50
2023-04-03T13:04:33.234Z,5.49
2023-04-03T13:05:37.246Z,5.50
2023-04-03T13:06:42.682Z,5.50
2023-04-03T13:07:49.729Z,5.46
2023-04-03T13:09:01.840Z,5.47
2023-04-03T13:10:10.100Z,5.49
2023-04-03T13:11:13.420Z,5.49
2023-04-03T13:12:17.220Z,5.49
2023-04-03T13:13:19.544Z,5.43
2023-04-03T13:14:24.041Z,5.45
2023-04-03T13:15:40.961Z,5.44
2023-04-03T13:16:43.528Z,5.44
2023-04-03T13:17:46.553Z,5.43
2023-04-03T13:18:53.081Z,5.41
2023-04-03T13:19:55.906Z,5.40
2023-04-03T13:21:04.816Z,5.40
2023-04-03T13:22:14.776Z,5.38
2023-04-03T13:23:19.409Z,5.38
2023-04-03T13:24:21.746Z,5.38
2023-04-03T13:25:26.259Z,5.37
2023-04-03T13:26:32.198Z,5.37
2023-04-03T13:27:34.826Z,5.37
2023-04-03T13:28:38.471Z,5.34
2023-04-03T13:29:41.614Z,5.35
2023-04-03T13:30:57.814Z,5.36
2023-04-03T13:32:02.967Z,5.32
2023-04-03T13:33:20.995Z,5.31
2023-04-03T13:34:28.920Z,5.31
2023-04-03T13:35:43.248Z,5.28
2023-04-03T13:36:52.426Z,5.29
2023-04-03T13:37:57.844Z,5.29
2023-04-03T13:39:30.206Z,5.30
2023-04-03T13:40:45.162Z,5.28
2023-04-03T13:41:58.176Z,5.28
2023-04-03T13:43:07.688Z,5.27
2023-04-03T13:44:28.658Z,5.26
2023-04-03T13:45:36.371Z,5.22
2023-04-03T13:46:41.292Z,5.20
2023-04-03T13:47:45.787Z,5.19
2023-04-03T13:48:53.815Z,5.20
2023-04-03T13:50:13.840Z,5.20
2023-04-03T13:51:16.503Z,5.19
2023-04-03T13:52:32.362Z,5.18
2023-04-03T13:53:42.294Z,5.18
2023-04-03T13:54:48.328Z,5.17
2023-04-03T13:56:07.067Z,5.16
2023-04-03T13:57:16.196Z,5.15
2023-04-03T13:58:25.484Z,5.15
2023-04-03T13:59:34.300Z,5.14
2023-04-03T14:00:48.797Z,5.13
2023-04-03T14:02:11.541Z,5.11
2023-04-03T14:03:18.486Z,5.09
2023-04-03T14:04:32.759Z,5.07
2023-04-03T14:05:35.072Z,5.04
2023-04-03T14:06:37.370Z,5.05
2023-04-03T14:07:39.656Z,5.03
2023-04-03T14:08:43.769Z,5.01
2023-04-03T14:09:46.320Z,5.00
2023-04-03T14:10:51.038Z,4.98
2023-04-03T14:11:56.976Z,4.97
2023-04-03T14:12:59.366Z,4.96
2023-04-03T14:14:06.699Z,4.96
2023-04-03T14:15:30.120Z,4.96
2023-04-03T14:16:38.602Z,4.92
2023-04-03T14:17:41.623Z,4.91
2023-04-03T14:18:46.067Z,4.89
2023-04-03T14:19:50.864Z,4.89
2023-04-03T14:20:54.703Z,4.86
2023-04-03T14:21:58.552Z,4.86
2023-04-03T14:23:00.854Z,4.85
2023-04-03T14:24:03.585Z,4.87
2023-04-03T14:25:06.594Z,4.88
2023-04-03T14:26:14.701Z,4.85
2023-04-03T14:27:25.289Z,4.85
2023-04-03T14:28:28.242Z,4.83
2023-04-03T14:29:30.785Z,4.84
2023-04-03T14:30:35.083Z,4.85
2023-04-03T14:31:37.483Z,4.84
2023-04-03T14:32:40.120Z,4.84
2023-04-03T14:33:43.075Z,4.84
2023-04-03T14:34:46.157Z,4.83
2023-04-03T14:35:49.046Z,4.77
2023-04-03T14:36:51.929Z,4.77
2023-04-03T14:37:55.041Z,4.78
2023-04-03T14:38:58.176Z,4.76
2023-04-03T14:40:02.369Z,4.62
2023-04-03T14:41:15.657Z,4.64
2023-04-03T14:42:35.358Z,4.60
2023-04-03T14:43:37.742Z,4.60
2023-04-03T14:44:40.048Z,4.62
2023-04-03T14:45:43.874Z,4.59